Osman Prince — D6A2040 — position and weather

sailwx.info

Track history (hours):
 
Tides and Currents Weather Stations Pressure Air Temp Water Temp Dewpoint Dewpoint Depression Visibility Wind Speed Wind Dir Waves Ship Positions

Osman Prince

Last reported at 2018-Jun-08 00:22 UTC. Time now 2018-Jun-19 18:28 UTC.
Position N 35°44' E 023°27'.
Warning: this ship's position is 11 days out of date.

Length 151 m; draft 5.4 m.

MMSI: 620040000.

Date/timePositionNaut miles runAvg speedWind from/ knotsBaromVisibWave heightAir tempDewpointWater temp
2018-Jun-08 00:22N 35°44' E 023°27'9 8.7
2018-Jun-07 23:21N 35°52' E 023°31'3 8.7
2018-Jun-07 23:01N 35°54' E 023°33'4 8.7
2018-Jun-07 22:30N 35°58' E 023°34'4 8.7
2018-Jun-07 22:01N 36°03' E 023°36'4 8.7
2018-Jun-07 21:30N 36°07' E 023°38'4 8.7
2018-Jun-07 21:00N 36°11' E 023°40'5 8.7
2018-Jun-07 20:24N 36°16' E 023°42'4 9.0
2018-Jun-07 19:58N 36°19' E 023°44'8 8.9
2018-Jun-07 19:01N 36°27' E 023°48'0 8.8
2018-Jun-07 19:00N 36°27' E 023°48'4 8.9
2018-Jun-07 18:31N 36°31' E 023°50'5 8.8
2018-Jun-07 17:59N 36°36' E 023°52'4 8.9
2018-Jun-07 17:31N 36°39' E 023°55'5 8.9
2018-Jun-07 16:58N 36°44' E 023°57'15 8.7
2018-Jun-07 15:13N 36°58' E 024°04'2 8.5
2018-Jun-07 15:01N 36°60' E 024°04'4 8.5
2018-Jun-07 14:30N 37°04' E 024°06'4 8.6
2018-Jun-07 13:59N 37°08' E 024°08'180 4.6
2018-Jun-05 23:02N 39°45' E 026°01'0 0.1
2018-Jun-05 22:56N 39°45' E 026°01'0 0.0
2018-Jun-05 04:56N 39°45' E 026°01'0 0.0
2018-Jun-05 04:29N 39°45' E 026°01'0 0.0
2018-Jun-04 23:29N 39°45' E 026°01'0 0.0
2018-Jun-02 23:50N 39°45' E 026°01'0 0.0
2018-Jun-02 22:35N 39°45' E 026°01'  
Track history (hours):
 
Tides and Currents Weather Stations Pressure Air Temp Water Temp Dewpoint Dewpoint Depression Visibility Wind Speed Wind Dir Waves Ship Positions

Osman Prince

Last reported at 2018-Jun-08 00:22 UTC. Time now 2018-Jun-19 18:28 UTC.
Position N 35°44' E 023°27'.
Warning: this ship's position is 11 days out of date.

Length 151 m; draft 5.4 m.

MMSI: 620040000.

Date/timePositionNaut miles runAvg speedWind from/ knotsBaromVisibWave heightAir tempDewpointWater temp
2018-Jun-08 00:22N 35°44' E 023°27'9 8.7
2018-Jun-07 23:21N 35°52' E 023°31'3 8.7
2018-Jun-07 23:01N 35°54' E 023°33'4 8.7
2018-Jun-07 22:30N 35°58' E 023°34'4 8.7
2018-Jun-07 22:01N 36°03' E 023°36'4 8.7
2018-Jun-07 21:30N 36°07' E 023°38'4 8.7
2018-Jun-07 21:00N 36°11' E 023°40'5 8.7
2018-Jun-07 20:24N 36°16' E 023°42'4 9.0
2018-Jun-07 19:58N 36°19' E 023°44'8 8.9
2018-Jun-07 19:01N 36°27' E 023°48'0 8.8
2018-Jun-07 19:00N 36°27' E 023°48'4 8.9
2018-Jun-07 18:31N 36°31' E 023°50'5 8.8
2018-Jun-07 17:59N 36°36' E 023°52'4 8.9
2018-Jun-07 17:31N 36°39' E 023°55'5 8.9
2018-Jun-07 16:58N 36°44' E 023°57'15 8.7
2018-Jun-07 15:13N 36°58' E 024°04'2 8.5
2018-Jun-07 15:01N 36°60' E 024°04'4 8.5
2018-Jun-07 14:30N 37°04' E 024°06'4 8.6
2018-Jun-07 13:59N 37°08' E 024°08'180 4.6
2018-Jun-05 23:02N 39°45' E 026°01'0 0.1
2018-Jun-05 22:56N 39°45' E 026°01'0 0.0
2018-Jun-05 04:56N 39°45' E 026°01'0 0.0
2018-Jun-05 04:29N 39°45' E 026°01'0 0.0
2018-Jun-04 23:29N 39°45' E 026°01'0 0.0
2018-Jun-02 23:50N 39°45' E 026°01'0 0.0
2018-Jun-02 22:35N 39°45' E 026°01'  

Dump ship's entire track history